sensor_id;sensor_type;location;lat;lon;timestamp;P1;durP1;ratioP1;P2;durP2;ratioP2
8893;SDS011;4483;48.622;9.230;2024-02-14T00:01:53;2.80;;;2.50;;
8893;SDS011;4483;48.622;9.230;2024-02-14T00:04:19;3.03;;;2.70;;
8893;SDS011;4483;48.622;9.230;2024-02-14T00:06:46;4.10;;;3.13;;
8893;SDS011;4483;48.622;9.230;2024-02-14T00:09:13;4.60;;;2.93;;
8893;SDS011;4483;48.622;9.230;2024-02-14T00:11:39;6.13;;;2.70;;
8893;SDS011;4483;48.622;9.230;2024-02-14T00:14:06;3.13;;;2.50;;
8893;SDS011;4483;48.622;9.230;2024-02-14T00:16:34;4.10;;;3.00;;
8893;SDS011;4483;48.622;9.230;2024-02-14T00:19:01;3.70;;;2.63;;
8893;SDS011;4483;48.622;9.230;2024-02-14T00:21:28;4.07;;;2.70;;
8893;SDS011;4483;48.622;9.230;2024-02-14T00:23:56;4.13;;;2.83;;
8893;SDS011;4483;48.622;9.230;2024-02-14T00:26:23;5.63;;;2.50;;
8893;SDS011;4483;48.622;9.230;2024-02-14T00:28:50;6.03;;;2.67;;
8893;SDS011;4483;48.622;9.230;2024-02-14T00:31:16;4.10;;;2.80;;
8893;SDS011;4483;48.622;9.230;2024-02-14T00:33:44;4.40;;;2.30;;
8893;SDS011;4483;48.622;9.230;2024-02-14T00:36:11;3.10;;;2.33;;
8893;SDS011;4483;48.622;9.230;2024-02-14T00:38:38;2.83;;;2.30;;
8893;SDS011;4483;48.622;9.230;2024-02-14T00:41:04;4.93;;;2.70;;
8893;SDS011;4483;48.622;9.230;2024-02-14T00:43:31;7.10;;;2.47;;
8893;SDS011;4483;48.622;9.230;2024-02-14T00:45:59;3.97;;;2.40;;
8893;SDS011;4483;48.622;9.230;2024-02-14T00:48:25;3.73;;;2.63;;
8893;SDS011;4483;48.622;9.230;2024-02-14T00:50:53;2.90;;;2.40;;
8893;SDS011;4483;48.622;9.230;2024-02-14T00:53:20;3.10;;;2.80;;
8893;SDS011;4483;48.622;9.230;2024-02-14T00:55:46;4.60;;;2.63;;
8893;SDS011;4483;48.622;9.230;2024-02-14T00:58:13;3.57;;;2.90;;
8893;SDS011;4483;48.622;9.230;2024-02-14T01:00:40;3.97;;;2.77;;
8893;SDS011;4483;48.622;9.230;2024-02-14T01:03:06;6.70;;;2.67;;
8893;SDS011;4483;48.622;9.230;2024-02-14T01:05:34;3.50;;;2.67;;
8893;SDS011;4483;48.622;9.230;2024-02-14T01:08:02;2.77;;;2.40;;
8893;SDS011;4483;48.622;9.230;2024-02-14T01:10:29;5.40;;;2.63;;
8893;SDS011;4483;48.622;9.230;2024-02-14T01:12:56;3.17;;;2.60;;
8893;SDS011;4483;48.622;9.230;2024-02-14T01:15:22;2.93;;;2.30;;
8893;SDS011;4483;48.622;9.230;2024-02-14T01:17:49;3.60;;;2.43;;
8893;SDS011;4483;48.622;9.230;2024-02-14T01:20:16;4.30;;;2.73;;
8893;SDS011;4483;48.622;9.230;2024-02-14T01:22:43;2.80;;;2.50;;
8893;SDS011;4483;48.622;9.230;2024-02-14T01:25:12;4.07;;;2.73;;
8893;SDS011;4483;48.622;9.230;2024-02-14T01:27:39;3.13;;;2.30;;
8893;SDS011;4483;48.622;9.230;2024-02-14T01:30:08;7.27;;;2.77;;
8893;SDS011;4483;48.622;9.230;2024-02-14T01:32:36;3.77;;;2.50;;
8893;SDS011;4483;48.622;9.230;2024-02-14T01:35:04;2.67;;;2.30;;
8893;SDS011;4483;48.622;9.230;2024-02-14T01:37:31;4.77;;;3.00;;
8893;SDS011;4483;48.622;9.230;2024-02-14T01:39:58;4.60;;;2.80;;
8893;SDS011;4483;48.622;9.230;2024-02-14T01:42:26;4.10;;;2.83;;
8893;SDS011;4483;48.622;9.230;2024-02-14T01:44:52;3.80;;;2.60;;
8893;SDS011;4483;48.622;9.230;2024-02-14T01:47:19;3.30;;;2.60;;
8893;SDS011;4483;48.622;9.230;2024-02-14T01:49:46;2.77;;;2.40;;
8893;SDS011;4483;48.622;9.230;2024-02-14T01:52:13;4.97;;;2.83;;
8893;SDS011;4483;48.622;9.230;2024-02-14T01:54:41;2.47;;;2.27;;
8893;SDS011;4483;48.622;9.230;2024-02-14T01:57:08;2.73;;;2.47;;
8893;SDS011;4483;48.622;9.230;2024-02-14T01:59:37;7.87;;;2.60;;
8893;SDS011;4483;48.622;9.230;2024-02-14T02:02:04;5.47;;;2.77;;
8893;SDS011;4483;48.622;9.230;2024-02-14T02:04:32;3.23;;;2.47;;
8893;SDS011;4483;48.622;9.230;2024-02-14T02:06:59;5.30;;;2.50;;
8893;SDS011;4483;48.622;9.230;2024-02-14T02:09:26;3.23;;;2.80;;
8893;SDS011;4483;48.622;9.230;2024-02-14T02:11:53;2.90;;;2.63;;
8893;SDS011;4483;48.622;9.230;2024-02-14T02:14:21;3.40;;;2.57;;
8893;SDS011;4483;48.622;9.230;2024-02-14T02:16:49;3.93;;;2.50;;
8893;SDS011;4483;48.622;9.230;2024-02-14T02:19:15;5.77;;;2.40;;
8893;SDS011;4483;48.622;9.230;2024-02-14T02:21:42;3.60;;;2.30;;
8893;SDS011;4483;48.622;9.230;2024-02-14T02:24:10;2.60;;;2.40;;
8893;SDS011;4483;48.622;9.230;2024-02-14T02:26:37;3.20;;;2.83;;
8893;SDS011;4483;48.622;9.230;2024-02-14T02:29:03;3.20;;;2.47;;
8893;SDS011;4483;48.622;9.230;2024-02-14T02:31:31;3.33;;;2.53;;
8893;SDS011;4483;48.622;9.230;2024-02-14T02:33:57;3.67;;;2.93;;
8893;SDS011;4483;48.622;9.230;2024-02-14T02:36:24;4.23;;;2.87;;
8893;SDS011;4483;48.622;9.230;2024-02-14T02:38:55;4.13;;;2.63;;
8893;SDS011;4483;48.622;9.230;2024-02-14T02:41:23;2.83;;;2.63;;
8893;SDS011;4483;48.622;9.230;2024-02-14T02:43:50;4.43;;;2.50;;
8893;SDS011;4483;48.622;9.230;2024-02-14T02:46:18;5.93;;;2.90;;
8893;SDS011;4483;48.622;9.230;2024-02-14T02:48:44;5.03;;;2.60;;
8893;SDS011;4483;48.622;9.230;2024-02-14T02:51:11;4.00;;;3.03;;
8893;SDS011;4483;48.622;9.230;2024-02-14T02:53:38;3.33;;;2.67;;
8893;SDS011;4483;48.622;9.230;2024-02-14T02:56:05;2.27;;;2.07;;
8893;SDS011;4483;48.622;9.230;2024-02-14T02:58:33;3.40;;;2.37;;
8893;SDS011;4483;48.622;9.230;2024-02-14T03:01:00;3.77;;;2.83;;
8893;SDS011;4483;48.622;9.230;2024-02-14T03:03:27;4.07;;;2.77;;
8893;SDS011;4483;48.622;9.230;2024-02-14T03:05:53;5.63;;;3.07;;
8893;SDS011;4483;48.622;9.230;2024-02-14T03:08:21;3.03;;;2.63;;
8893;SDS011;4483;48.622;9.230;2024-02-14T03:10:50;4.37;;;2.70;;
8893;SDS011;4483;48.622;9.230;2024-02-14T03:13:17;3.60;;;2.73;;
8893;SDS011;4483;48.622;9.230;2024-02-14T03:15:46;4.60;;;2.87;;
8893;SDS011;4483;48.622;9.230;2024-02-14T03:18:13;2.50;;;2.30;;
8893;SDS011;4483;48.622;9.230;2024-02-14T03:20:40;2.90;;;2.70;;
8893;SDS011;4483;48.622;9.230;2024-02-14T03:23:06;4.43;;;2.80;;
8893;SDS011;4483;48.622;9.230;2024-02-14T03:25:33;4.03;;;2.57;;
8893;SDS011;4483;48.622;9.230;2024-02-14T03:28:02;4.47;;;2.70;;
8893;SDS011;4483;48.622;9.230;2024-02-14T03:30:33;4.00;;;2.67;;
8893;SDS011;4483;48.622;9.230;2024-02-14T03:33:01;4.87;;;2.80;;
8893;SDS011;4483;48.622;9.230;2024-02-14T03:35:28;4.10;;;2.63;;
8893;SDS011;4483;48.622;9.230;2024-02-14T03:37:55;3.10;;;2.60;;
8893;SDS011;4483;48.622;9.230;2024-02-14T03:40:22;3.00;;;2.70;;
8893;SDS011;4483;48.622;9.230;2024-02-14T03:42:49;2.40;;;2.20;;
8893;SDS011;4483;48.622;9.230;2024-02-14T03:45:16;5.37;;;2.70;;
8893;SDS011;4483;48.622;9.230;2024-02-14T03:47:43;2.83;;;2.27;;
8893;SDS011;4483;48.622;9.230;2024-02-14T03:50:11;3.00;;;2.80;;
8893;SDS011;4483;48.622;9.230;2024-02-14T03:52:37;5.20;;;2.80;;
8893;SDS011;4483;48.622;9.230;2024-02-14T03:55:05;2.50;;;2.30;;
8893;SDS011;4483;48.622;9.230;2024-02-14T03:57:34;4.20;;;2.70;;
8893;SDS011;4483;48.622;9.230;2024-02-14T04:00:04;5.33;;;3.30;;
8893;SDS011;4483;48.622;9.230;2024-02-14T04:02:33;3.37;;;2.90;;
8893;SDS011;4483;48.622;9.230;2024-02-14T04:05:00;6.07;;;2.90;;
8893;SDS011;4483;48.622;9.230;2024-02-14T04:07:28;7.50;;;3.47;;
8893;SDS011;4483;48.622;9.230;2024-02-14T04:09:55;4.73;;;3.00;;
8893;SDS011;4483;48.622;9.230;2024-02-14T04:12:22;2.87;;;2.67;;
8893;SDS011;4483;48.622;9.230;2024-02-14T04:14:49;6.37;;;2.57;;
8893;SDS011;4483;48.622;9.230;2024-02-14T04:17:15;2.30;;;2.10;;
8893;SDS011;4483;48.622;9.230;2024-02-14T04:19:42;2.70;;;2.50;;
8893;SDS011;4483;48.622;9.230;2024-02-14T04:22:08;3.53;;;2.53;;
8893;SDS011;4483;48.622;9.230;2024-02-14T04:24:36;3.47;;;2.73;;
8893;SDS011;4483;48.622;9.230;2024-02-14T04:27:03;5.97;;;2.77;;
8893;SDS011;4483;48.622;9.230;2024-02-14T04:29:30;5.30;;;2.43;;
8893;SDS011;4483;48.622;9.230;2024-02-14T04:31:58;5.20;;;2.27;;
8893;SDS011;4483;48.622;9.230;2024-02-14T04:34:25;3.83;;;2.47;;
8893;SDS011;4483;48.622;9.230;2024-02-14T04:36:51;3.07;;;2.77;;
8893;SDS011;4483;48.622;9.230;2024-02-14T04:39:18;2.57;;;2.37;;
8893;SDS011;4483;48.622;9.230;2024-02-14T04:41:46;2.63;;;2.43;;
8893;SDS011;4483;48.622;9.230;2024-02-14T04:44:15;3.57;;;3.10;;
8893;SDS011;4483;48.622;9.230;2024-02-14T04:46:41;4.23;;;3.00;;
8893;SDS011;4483;48.622;9.230;2024-02-14T04:49:08;4.13;;;2.87;;
8893;SDS011;4483;48.622;9.230;2024-02-14T04:51:35;4.60;;;2.83;;
8893;SDS011;4483;48.622;9.230;2024-02-14T04:54:02;3.67;;;2.57;;
8893;SDS011;4483;48.622;9.230;2024-02-14T04:56:30;6.63;;;2.60;;
8893;SDS011;4483;48.622;9.230;2024-02-14T04:58:58;3.87;;;2.60;;
8893;SDS011;4483;48.622;9.230;2024-02-14T05:01:25;5.07;;;2.60;;
8893;SDS011;4483;48.622;9.230;2024-02-14T05:03:51;3.47;;;2.50;;
8893;SDS011;4483;48.622;9.230;2024-02-14T05:06:18;6.13;;;2.70;;
8893;SDS011;4483;48.622;9.230;2024-02-14T05:08:44;3.83;;;2.67;;
8893;SDS011;4483;48.622;9.230;2024-02-14T05:11:10;4.17;;;2.60;;
8893;SDS011;4483;48.622;9.230;2024-02-14T05:13:37;2.40;;;2.20;;
8893;SDS011;4483;48.622;9.230;2024-02-14T05:16:08;2.97;;;2.53;;
8893;SDS011;4483;48.622;9.230;2024-02-14T05:18:35;2.53;;;2.33;;
8893;SDS011;4483;48.622;9.230;2024-02-14T05:21:04;4.17;;;2.73;;
8893;SDS011;4483;48.622;9.230;2024-02-14T05:23:31;4.20;;;2.50;;
8893;SDS011;4483;48.622;9.230;2024-02-14T05:25:58;4.23;;;3.07;;
8893;SDS011;4483;48.622;9.230;2024-02-14T05:28:25;4.17;;;2.60;;
8893;SDS011;4483;48.622;9.230;2024-02-14T05:30:51;2.93;;;2.70;;
8893;SDS011;4483;48.622;9.230;2024-02-14T05:33:19;3.47;;;3.13;;
8893;SDS011;4483;48.622;9.230;2024-02-14T05:35:47;5.30;;;2.63;;
8893;SDS011;4483;48.622;9.230;2024-02-14T05:38:14;3.00;;;2.70;;
8893;SDS011;4483;48.622;9.230;2024-02-14T05:40:41;4.47;;;3.43;;
8893;SDS011;4483;48.622;9.230;2024-02-14T05:43:08;3.37;;;2.80;;
8893;SDS011;4483;48.622;9.230;2024-02-14T05:45:35;3.07;;;2.87;;
8893;SDS011;4483;48.622;9.230;2024-02-14T05:48:02;3.20;;;2.80;;
8893;SDS011;4483;48.622;9.230;2024-02-14T05:50:30;3.20;;;2.63;;
8893;SDS011;4483;48.622;9.230;2024-02-14T05:52:58;3.27;;;2.87;;
8893;SDS011;4483;48.622;9.230;2024-02-14T05:55:25;3.60;;;2.83;;
8893;SDS011;4483;48.622;9.230;2024-02-14T05:57:52;2.90;;;2.63;;
8893;SDS011;4483;48.622;9.230;2024-02-14T06:00:19;4.00;;;3.20;;
8893;SDS011;4483;48.622;9.230;2024-02-14T06:02:46;5.37;;;3.10;;
8893;SDS011;4483;48.622;9.230;2024-02-14T06:05:13;3.47;;;3.13;;
8893;SDS011;4483;48.622;9.230;2024-02-14T06:07:41;4.77;;;3.30;;
8893;SDS011;4483;48.622;9.230;2024-02-14T06:10:10;5.33;;;3.30;;
8893;SDS011;4483;48.622;9.230;2024-02-14T06:12:37;5.37;;;3.67;;
8893;SDS011;4483;48.622;9.230;2024-02-14T06:15:05;4.10;;;3.00;;
8893;SDS011;4483;48.622;9.230;2024-02-14T06:17:32;3.30;;;3.00;;
8893;SDS011;4483;48.622;9.230;2024-02-14T06:19:59;7.67;;;3.47;;
8893;SDS011;4483;48.622;9.230;2024-02-14T06:22:30;3.27;;;2.97;;
8893;SDS011;4483;48.622;9.230;2024-02-14T06:24:58;4.20;;;3.00;;
8893;SDS011;4483;48.622;9.230;2024-02-14T06:27:25;2.70;;;2.50;;
8893;SDS011;4483;48.622;9.230;2024-02-14T06:29:52;3.70;;;3.00;;
8893;SDS011;4483;48.622;9.230;2024-02-14T06:32:19;6.53;;;2.97;;
8893;SDS011;4483;48.622;9.230;2024-02-14T06:34:46;3.53;;;3.23;;
8893;SDS011;4483;48.622;9.230;2024-02-14T06:37:13;4.70;;;3.07;;
8893;SDS011;4483;48.622;9.230;2024-02-14T06:39:39;3.80;;;3.10;;
8893;SDS011;4483;48.622;9.230;2024-02-14T06:42:07;4.17;;;3.20;;
8893;SDS011;4483;48.622;9.230;2024-02-14T06:44:34;4.90;;;2.87;;
8893;SDS011;4483;48.622;9.230;2024-02-14T06:47:00;6.60;;;3.20;;
8893;SDS011;4483;48.622;9.230;2024-02-14T06:49:27;4.73;;;3.27;;
8893;SDS011;4483;48.622;9.230;2024-02-14T06:51:54;5.20;;;3.23;;
8893;SDS011;4483;48.622;9.230;2024-02-14T06:54:20;3.67;;;3.27;;
8893;SDS011;4483;48.622;9.230;2024-02-14T06:56:47;3.83;;;3.20;;
8893;SDS011;4483;48.622;9.230;2024-02-14T06:59:15;3.53;;;3.10;;
8893;SDS011;4483;48.622;9.230;2024-02-14T07:01:41;4.57;;;3.27;;
8893;SDS011;4483;48.622;9.230;2024-02-14T07:04:08;4.55;;;3.40;;
8893;SDS011;4483;48.622;9.230;2024-02-14T07:06:35;5.57;;;3.60;;
8893;SDS011;4483;48.622;9.230;2024-02-14T07:09:02;5.10;;;3.43;;
8893;SDS011;4483;48.622;9.230;2024-02-14T07:11:29;5.97;;;3.73;;
8893;SDS011;4483;48.622;9.230;2024-02-14T07:13:55;4.17;;;3.40;;
8893;SDS011;4483;48.622;9.230;2024-02-14T07:16:24;2.70;;;2.50;;
8893;SDS011;4483;48.622;9.230;2024-02-14T07:18:50;3.20;;;2.90;;
8893;SDS011;4483;48.622;9.230;2024-02-14T07:21:17;3.90;;;3.60;;
8893;SDS011;4483;48.622;9.230;2024-02-14T07:23:44;3.87;;;3.50;;
8893;SDS011;4483;48.622;9.230;2024-02-14T07:26:10;3.83;;;3.40;;
8893;SDS011;4483;48.622;9.230;2024-02-14T07:28:37;3.27;;;2.97;;
8893;SDS011;4483;48.622;9.230;2024-02-14T07:31:03;5.17;;;3.67;;
8893;SDS011;4483;48.622;9.230;2024-02-14T07:33:32;4.80;;;3.20;;
8893;SDS011;4483;48.622;9.230;2024-02-14T07:35:58;6.30;;;3.90;;
8893;SDS011;4483;48.622;9.230;2024-02-14T07:38:25;5.73;;;4.30;;
8893;SDS011;4483;48.622;9.230;2024-02-14T07:40:51;5.53;;;4.37;;
8893;SDS011;4483;48.622;9.230;2024-02-14T07:43:18;4.20;;;3.80;;
8893;SDS011;4483;48.622;9.230;2024-02-14T07:45:45;3.80;;;3.40;;
8893;SDS011;4483;48.622;9.230;2024-02-14T07:48:13;3.40;;;3.10;;
8893;SDS011;4483;48.622;9.230;2024-02-14T07:50:41;8.20;;;3.80;;
8893;SDS011;4483;48.622;9.230;2024-02-14T07:53:07;5.00;;;3.70;;
8893;SDS011;4483;48.622;9.230;2024-02-14T07:55:34;5.83;;;4.33;;
8893;SDS011;4483;48.622;9.230;2024-02-14T07:58:00;7.80;;;3.60;;
8893;SDS011;4483;48.622;9.230;2024-02-14T08:00:27;5.33;;;3.90;;
8893;SDS011;4483;48.622;9.230;2024-02-14T08:02:54;6.17;;;4.70;;
8893;SDS011;4483;48.622;9.230;2024-02-14T08:05:20;6.90;;;5.50;;
8893;SDS011;4483;48.622;9.230;2024-02-14T08:07:48;5.13;;;3.90;;
8893;SDS011;4483;48.622;9.230;2024-02-14T08:10:15;5.57;;;4.67;;
8893;SDS011;4483;48.622;9.230;2024-02-14T08:12:42;5.83;;;3.93;;
8893;SDS011;4483;48.622;9.230;2024-02-14T08:15:09;8.10;;;4.23;;
8893;SDS011;4483;48.622;9.230;2024-02-14T08:17:35;4.90;;;3.87;;
8893;SDS011;4483;48.622;9.230;2024-02-14T08:20:03;7.93;;;4.87;;
8893;SDS011;4483;48.622;9.230;2024-02-14T08:22:30;7.90;;;4.60;;
8893;SDS011;4483;48.622;9.230;2024-02-14T08:24:58;5.80;;;4.67;;
8893;SDS011;4483;48.622;9.230;2024-02-14T08:27:25;8.60;;;5.47;;
8893;SDS011;4483;48.622;9.230;2024-02-14T08:29:52;9.67;;;5.53;;
8893;SDS011;4483;48.622;9.230;2024-02-14T08:32:19;7.43;;;4.80;;
8893;SDS011;4483;48.622;9.230;2024-02-14T08:34:45;6.03;;;5.00;;
8893;SDS011;4483;48.622;9.230;2024-02-14T08:37:12;8.73;;;5.10;;
8893;SDS011;4483;48.622;9.230;2024-02-14T08:39:39;7.07;;;5.20;;
8893;SDS011;4483;48.622;9.230;2024-02-14T08:42:07;8.67;;;5.23;;
8893;SDS011;4483;48.622;9.230;2024-02-14T08:44:34;6.83;;;4.83;;
8893;SDS011;4483;48.622;9.230;2024-02-14T08:47:02;7.23;;;5.00;;
8893;SDS011;4483;48.622;9.230;2024-02-14T08:49:29;7.13;;;3.90;;
8893;SDS011;4483;48.622;9.230;2024-02-14T08:51:56;6.40;;;3.60;;
8893;SDS011;4483;48.622;9.230;2024-02-14T08:54:22;5.33;;;3.27;;
8893;SDS011;4483;48.622;9.230;2024-02-14T08:56:50;5.67;;;3.47;;
8893;SDS011;4483;48.622;9.230;2024-02-14T08:59:19;4.10;;;3.70;;
8893;SDS011;4483;48.622;9.230;2024-02-14T09:01:46;5.23;;;3.30;;
8893;SDS011;4483;48.622;9.230;2024-02-14T09:04:13;4.27;;;3.13;;
8893;SDS011;4483;48.622;9.230;2024-02-14T09:06:40;5.63;;;3.40;;
8893;SDS011;4483;48.622;9.230;2024-02-14T09:09:06;5.33;;;3.10;;
8893;SDS011;4483;48.622;9.230;2024-02-14T09:11:35;3.83;;;2.90;;
8893;SDS011;4483;48.622;9.230;2024-02-14T09:14:01;6.83;;;3.13;;
8893;SDS011;4483;48.622;9.230;2024-02-14T09:16:32;3.30;;;2.73;;
8893;SDS011;4483;48.622;9.230;2024-02-14T09:18:59;3.20;;;2.90;;
8893;SDS011;4483;48.622;9.230;2024-02-14T09:21:26;3.40;;;3.10;;
8893;SDS011;4483;48.622;9.230;2024-02-14T09:23:54;3.63;;;3.33;;
8893;SDS011;4483;48.622;9.230;2024-02-14T09:26:20;3.93;;;3.10;;
8893;SDS011;4483;48.622;9.230;2024-02-14T09:28:47;5.03;;;3.27;;
8893;SDS011;4483;48.622;9.230;2024-02-14T09:31:17;7.60;;;3.17;;
8893;SDS011;4483;48.622;9.230;2024-02-14T09:33:46;3.20;;;2.90;;
8893;SDS011;4483;48.622;9.230;2024-02-14T09:36:14;3.03;;;2.73;;
8893;SDS011;4483;48.622;9.230;2024-02-14T09:38:41;5.10;;;3.00;;
8893;SDS011;4483;48.622;9.230;2024-02-14T09:41:10;6.93;;;2.87;;
8893;SDS011;4483;48.622;9.230;2024-02-14T09:43:43;3.17;;;2.67;;
8893;SDS011;4483;48.622;9.230;2024-02-14T09:46:11;2.97;;;2.50;;
8893;SDS011;4483;48.622;9.230;2024-02-14T09:48:40;2.50;;;2.10;;
8893;SDS011;4483;48.622;9.230;2024-02-14T09:51:11;3.73;;;2.60;;
8893;SDS011;4483;48.622;9.230;2024-02-14T09:53:38;1.83;;;1.73;;
8893;SDS011;4483;48.622;9.230;2024-02-14T09:56:06;1.80;;;1.50;;
8893;SDS011;4483;48.622;9.230;2024-02-14T09:58:36;1.30;;;1.20;;
8893;SDS011;4483;48.622;9.230;2024-02-14T10:01:03;2.00;;;1.10;;
8893;SDS011;4483;48.622;9.230;2024-02-14T10:03:30;1.20;;;1.10;;
8893;SDS011;4483;48.622;9.230;2024-02-14T10:05:56;2.37;;;1.20;;
8893;SDS011;4483;48.622;9.230;2024-02-14T10:08:24;1.70;;;1.00;;
8893;SDS011;4483;48.622;9.230;2024-02-14T10:10:51;1.10;;;1.00;;
8893;SDS011;4483;48.622;9.230;2024-02-14T10:13:18;4.37;;;1.10;;
8893;SDS011;4483;48.622;9.230;2024-02-14T10:15:45;2.07;;;1.30;;
8893;SDS011;4483;48.622;9.230;2024-02-14T10:18:12;3.33;;;1.50;;
8893;SDS011;4483;48.622;9.230;2024-02-14T10:20:39;1.23;;;1.13;;
8893;SDS011;4483;48.622;9.230;2024-02-14T10:23:10;1.37;;;1.10;;
8893;SDS011;4483;48.622;9.230;2024-02-14T10:25:38;1.10;;;1.00;;
8893;SDS011;4483;48.622;9.230;2024-02-14T10:28:05;1.07;;;1.07;;
8893;SDS011;4483;48.622;9.230;2024-02-14T10:30:33;5.50;;;1.10;;
8893;SDS011;4483;48.622;9.230;2024-02-14T10:33:01;1.47;;;1.10;;
8893;SDS011;4483;48.622;9.230;2024-02-14T10:35:28;2.43;;;1.10;;
8893;SDS011;4483;48.622;9.230;2024-02-14T10:37:57;1.43;;;1.30;;
8893;SDS011;4483;48.622;9.230;2024-02-14T10:40:26;1.30;;;1.20;;
8893;SDS011;4483;48.622;9.230;2024-02-14T10:42:55;1.63;;;1.27;;
8893;SDS011;4483;48.622;9.230;2024-02-14T10:45:23;1.60;;;1.50;;
8893;SDS011;4483;48.622;9.230;2024-02-14T10:47:50;0.90;;;0.90;;
8893;SDS011;4483;48.622;9.230;2024-02-14T10:50:20;1.20;;;1.00;;
8893;SDS011;4483;48.622;9.230;2024-02-14T10:52:48;3.27;;;1.00;;
8893;SDS011;4483;48.622;9.230;2024-02-14T10:55:16;2.20;;;1.30;;
8893;SDS011;4483;48.622;9.230;2024-02-14T10:57:43;3.93;;;1.10;;
8893;SDS011;4483;48.622;9.230;2024-02-14T11:00:14;2.20;;;1.00;;
8893;SDS011;4483;48.622;9.230;2024-02-14T11:02:43;1.00;;;0.90;;
8893;SDS011;4483;48.622;9.230;2024-02-14T11:05:12;1.97;;;1.20;;
8893;SDS011;4483;48.622;9.230;2024-02-14T11:07:43;1.20;;;1.10;;
8893;SDS011;4483;48.622;9.230;2024-02-14T11:10:13;1.23;;;1.20;;
8893;SDS011;4483;48.622;9.230;2024-02-14T11:12:40;1.60;;;1.15;;
8893;SDS011;4483;48.622;9.230;2024-02-14T11:15:10;1.00;;;1.00;;
8893;SDS011;4483;48.622;9.230;2024-02-14T11:17:42;1.97;;;1.20;;
8893;SDS011;4483;48.622;9.230;2024-02-14T11:20:15;5.57;;;1.00;;
8893;SDS011;4483;48.622;9.230;2024-02-14T11:22:56;1.00;;;1.00;;
8893;SDS011;4483;48.622;9.230;2024-02-14T11:25:28;1.00;;;1.00;;
8893;SDS011;4483;48.622;9.230;2024-02-14T11:27:59;0.88;;;0.85;;
8893;SDS011;4483;48.622;9.230;2024-02-14T11:30:33;2.47;;;0.83;;
8893;SDS011;4483;48.622;9.230;2024-02-14T11:33:13;1.10;;;0.93;;
8893;SDS011;4483;48.622;9.230;2024-02-14T11:35:44;2.08;;;0.90;;
8893;SDS011;4483;48.622;9.230;2024-02-14T11:38:12;0.70;;;0.70;;
8893;SDS011;4483;48.622;9.230;2024-02-14T11:40:39;3.08;;;0.70;;
8893;SDS011;4483;48.622;9.230;2024-02-14T11:43:10;0.80;;;0.80;;
8893;SDS011;4483;48.622;9.230;2024-02-14T11:45:39;0.77;;;0.77;;
8893;SDS011;4483;48.622;9.230;2024-02-14T11:48:07;0.80;;;0.70;;
8893;SDS011;4483;48.622;9.230;2024-02-14T11:50:35;1.35;;;0.73;;
8893;SDS011;4483;48.622;9.230;2024-02-14T11:53:02;0.80;;;0.70;;
8893;SDS011;4483;48.622;9.230;2024-02-14T11:55:29;0.63;;;0.63;;
8893;SDS011;4483;48.622;9.230;2024-02-14T11:57:58;0.70;;;0.70;;
8893;SDS011;4483;48.622;9.230;2024-02-14T12:00:24;0.63;;;0.63;;
8893;SDS011;4483;48.622;9.230;2024-02-14T12:02:52;0.80;;;0.80;;
8893;SDS011;4483;48.622;9.230;2024-02-14T12:05:19;0.95;;;0.73;;
8893;SDS011;4483;48.622;9.230;2024-02-14T12:07:46;0.77;;;0.77;;
8893;SDS011;4483;48.622;9.230;2024-02-14T12:10:13;0.75;;;0.70;;
8893;SDS011;4483;48.622;9.230;2024-02-14T12:12:44;0.80;;;0.80;;
8893;SDS011;4483;48.622;9.230;2024-02-14T12:15:11;1.00;;;0.90;;
8893;SDS011;4483;48.622;9.230;2024-02-14T12:17:40;1.13;;;0.73;;
8893;SDS011;4483;48.622;9.230;2024-02-14T12:20:09;0.93;;;0.93;;
8893;SDS011;4483;48.622;9.230;2024-02-14T12:22:38;1.35;;;0.85;;
8893;SDS011;4483;48.622;9.230;2024-02-14T12:25:06;0.82;;;0.80;;
8893;SDS011;4483;48.622;9.230;2024-02-14T12:27:36;0.98;;;0.82;;
8893;SDS011;4483;48.622;9.230;2024-02-14T12:30:03;1.30;;;0.70;;
8893;SDS011;4483;48.622;9.230;2024-02-14T12:32:30;0.60;;;0.60;;
8893;SDS011;4483;48.622;9.230;2024-02-14T12:34:57;0.70;;;0.70;;
8893;SDS011;4483;48.622;9.230;2024-02-14T12:37:25;0.65;;;0.65;;
8893;SDS011;4483;48.622;9.230;2024-02-14T12:39:52;0.60;;;0.60;;
8893;SDS011;4483;48.622;9.230;2024-02-14T12:42:20;0.70;;;0.70;;
8893;SDS011;4483;48.622;9.230;2024-02-14T12:44:50;0.47;;;0.47;;
8893;SDS011;4483;48.622;9.230;2024-02-14T12:47:17;0.80;;;0.70;;
8893;SDS011;4483;48.622;9.230;2024-02-14T12:49:46;0.88;;;0.60;;
8893;SDS011;4483;48.622;9.230;2024-02-14T12:52:13;1.45;;;0.82;;
8893;SDS011;4483;48.622;9.230;2024-02-14T12:54:41;0.68;;;0.65;;
8893;SDS011;4483;48.622;9.230;2024-02-14T12:57:09;0.60;;;0.60;;
8893;SDS011;4483;48.622;9.230;2024-02-14T12:59:36;0.85;;;0.68;;
8893;SDS011;4483;48.622;9.230;2024-02-14T13:02:03;0.52;;;0.52;;
8893;SDS011;4483;48.622;9.230;2024-02-14T13:04:31;1.13;;;0.70;;
8893;SDS011;4483;48.622;9.230;2024-02-14T13:06:58;0.50;;;0.50;;
8893;SDS011;4483;48.622;9.230;2024-02-14T13:09:25;0.50;;;0.50;;
8893;SDS011;4483;48.622;9.230;2024-02-14T13:11:54;0.75;;;0.68;;
8893;SDS011;4483;48.622;9.230;2024-02-14T13:14:21;0.60;;;0.60;;
8893;SDS011;4483;48.622;9.230;2024-02-14T13:16:47;1.33;;;0.80;;
8893;SDS011;4483;48.622;9.230;2024-02-14T13:19:14;0.60;;;0.60;;
8893;SDS011;4483;48.622;9.230;2024-02-14T13:21:40;0.50;;;0.50;;
8893;SDS011;4483;48.622;9.230;2024-02-14T13:24:10;1.42;;;0.60;;
8893;SDS011;4483;48.622;9.230;2024-02-14T13:26:37;0.50;;;0.50;;
8893;SDS011;4483;48.622;9.230;2024-02-14T13:29:06;1.48;;;0.60;;
8893;SDS011;4483;48.622;9.230;2024-02-14T13:31:33;0.60;;;0.60;;
8893;SDS011;4483;48.622;9.230;2024-02-14T13:33:59;0.77;;;0.77;;
8893;SDS011;4483;48.622;9.230;2024-02-14T13:36:28;0.85;;;0.50;;
8893;SDS011;4483;48.622;9.230;2024-02-14T13:38:55;0.60;;;0.60;;
8893;SDS011;4483;48.622;9.230;2024-02-14T13:41:22;0.60;;;0.60;;
8893;SDS011;4483;48.622;9.230;2024-02-14T13:43:48;0.40;;;0.40;;
8893;SDS011;4483;48.622;9.230;2024-02-14T13:46:16;0.60;;;0.60;;
8893;SDS011;4483;48.622;9.230;2024-02-14T13:48:43;0.50;;;0.50;;
8893;SDS011;4483;48.622;9.230;2024-02-14T13:51:10;0.77;;;0.77;;
8893;SDS011;4483;48.622;9.230;2024-02-14T13:53:36;1.00;;;0.60;;
8893;SDS011;4483;48.622;9.230;2024-02-14T13:56:04;0.60;;;0.60;;
8893;SDS011;4483;48.622;9.230;2024-02-14T13:58:31;0.82;;;0.60;;
8893;SDS011;4483;48.622;9.230;2024-02-14T14:00:58;0.60;;;0.60;;
8893;SDS011;4483;48.622;9.230;2024-02-14T14:03:26;0.90;;;0.70;;
8893;SDS011;4483;48.622;9.230;2024-02-14T14:05:54;0.80;;;0.63;;
8893;SDS011;4483;48.622;9.230;2024-02-14T14:08:21;2.28;;;0.80;;
8893;SDS011;4483;48.622;9.230;2024-02-14T14:10:48;0.60;;;0.60;;
8893;SDS011;4483;48.622;9.230;2024-02-14T14:13:15;2.03;;;0.70;;
8893;SDS011;4483;48.622;9.230;2024-02-14T14:15:41;0.55;;;0.55;;
8893;SDS011;4483;48.622;9.230;2024-02-14T14:18:08;0.60;;;0.60;;
8893;SDS011;4483;48.622;9.230;2024-02-14T14:20:37;0.60;;;0.60;;
8893;SDS011;4483;48.622;9.230;2024-02-14T14:23:04;0.63;;;0.63;;
8893;SDS011;4483;48.622;9.230;2024-02-14T14:25:31;0.60;;;0.60;;
8893;SDS011;4483;48.622;9.230;2024-02-14T14:27:57;0.52;;;0.52;;
8893;SDS011;4483;48.622;9.230;2024-02-14T14:30:25;0.60;;;0.60;;
8893;SDS011;4483;48.622;9.230;2024-02-14T14:32:51;0.60;;;0.60;;
8893;SDS011;4483;48.622;9.230;2024-02-14T14:35:18;0.70;;;0.70;;
8893;SDS011;4483;48.622;9.230;2024-02-14T14:37:46;0.75;;;0.75;;
8893;SDS011;4483;48.622;9.230;2024-02-14T14:40:13;0.77;;;0.77;;
8893;SDS011;4483;48.622;9.230;2024-02-14T14:42:40;0.60;;;0.60;;
8893;SDS011;4483;48.622;9.230;2024-02-14T14:45:06;0.65;;;0.65;;
8893;SDS011;4483;48.622;9.230;2024-02-14T14:47:33;1.90;;;1.02;;
8893;SDS011;4483;48.622;9.230;2024-02-14T14:50:01;2.80;;;0.60;;
8893;SDS011;4483;48.622;9.230;2024-02-14T14:52:28;0.90;;;0.75;;
8893;SDS011;4483;48.622;9.230;2024-02-14T14:54:56;0.75;;;0.75;;
8893;SDS011;4483;48.622;9.230;2024-02-14T14:57:23;0.73;;;0.73;;
8893;SDS011;4483;48.622;9.230;2024-02-14T14:59:50;0.68;;;0.68;;
8893;SDS011;4483;48.622;9.230;2024-02-14T15:02:17;0.60;;;0.60;;
8893;SDS011;4483;48.622;9.230;2024-02-14T15:04:43;0.52;;;0.52;;
8893;SDS011;4483;48.622;9.230;2024-02-14T15:07:12;0.73;;;0.63;;
8893;SDS011;4483;48.622;9.230;2024-02-14T15:09:38;2.30;;;0.70;;
8893;SDS011;4483;48.622;9.230;2024-02-14T15:12:07;0.50;;;0.50;;
8893;SDS011;4483;48.622;9.230;2024-02-14T15:14:34;0.50;;;0.50;;
8893;SDS011;4483;48.622;9.230;2024-02-14T15:17:01;0.52;;;0.52;;